createdAt,value
2019-01-10T00:01:24.109Z,5.73
2019-01-10T00:03:51.679Z,6.00
2019-01-10T00:06:19.127Z,6.30
2019-01-10T00:08:46.366Z,7.43
2019-01-10T00:11:13.741Z,5.60
2019-01-10T00:13:41.081Z,7.17
2019-01-10T00:16:08.497Z,7.37
2019-01-10T00:18:35.919Z,6.60
2019-01-10T00:21:03.415Z,6.93
2019-01-10T00:23:31.127Z,7.43
2019-01-10T00:25:58.420Z,5.40
2019-01-10T00:28:26.066Z,6.63
2019-01-10T00:30:53.522Z,7.00
2019-01-10T00:33:20.911Z,5.67
2019-01-10T00:35:48.327Z,6.13
2019-01-10T00:38:15.723Z,5.10
2019-01-10T00:40:43.135Z,5.37
2019-01-10T00:43:10.565Z,5.83
2019-01-10T00:45:37.939Z,4.93
2019-01-10T00:48:05.690Z,4.73
2019-01-10T00:50:33.065Z,5.40
2019-01-10T00:53:00.491Z,4.90
2019-01-10T00:55:27.903Z,5.80
2019-01-10T00:57:55.694Z,4.93
2019-01-10T01:00:24.804Z,4.27
2019-01-10T01:02:52.205Z,4.80
2019-01-10T01:05:19.878Z,4.87
2019-01-10T01:07:47.390Z,5.07
2019-01-10T01:10:20.146Z,4.63
2019-01-10T01:12:47.495Z,3.80
2019-01-10T01:15:16.080Z,4.00
2019-01-10T01:17:43.491Z,4.07
2019-01-10T01:20:12.091Z,4.40
2019-01-10T01:22:39.541Z,4.93
2019-01-10T01:25:08.353Z,4.30
2019-01-10T01:27:35.812Z,4.60
2019-01-10T01:30:05.710Z,4.23
2019-01-10T01:32:33.024Z,4.47
2019-01-10T01:35:01.765Z,3.20
2019-01-10T01:37:29.381Z,4.77
2019-01-10T01:39:57.134Z,4.43
2019-01-10T01:42:25.624Z,3.93
2019-01-10T01:44:53.054Z,3.80
2019-01-10T01:47:20.681Z,4.27
2019-01-10T01:49:48.095Z,5.03
2019-01-10T01:52:15.715Z,4.10
2019-01-10T01:54:43.399Z,4.33
2019-01-10T01:57:10.802Z,4.23
2019-01-10T01:59:38.188Z,4.83
2019-01-10T02:02:05.605Z,4.80
2019-01-10T02:04:33.292Z,4.33
2019-01-10T02:07:00.692Z,4.67
2019-01-10T02:09:28.072Z,4.53
2019-01-10T02:11:55.481Z,4.50
2019-01-10T02:14:22.832Z,4.43
2019-01-10T02:16:50.246Z,4.90
2019-01-10T02:19:17.681Z,5.00
2019-01-10T02:21:45.032Z,4.37
2019-01-10T02:24:12.475Z,4.63
2019-01-10T02:26:39.881Z,5.30
2019-01-10T02:29:07.285Z,5.00
2019-01-10T02:31:34.626Z,5.60
2019-01-10T02:34:02.511Z,4.73
2019-01-10T02:36:29.908Z,5.00
2019-01-10T02:38:57.298Z,5.03
2019-01-10T02:41:25.404Z,5.23
2019-01-10T02:43:52.676Z,4.67
2019-01-10T02:46:20.398Z,4.70
2019-01-10T02:48:48.091Z,5.50
2019-01-10T02:51:15.628Z,4.77
2019-01-10T02:53:43.025Z,4.73
2019-01-10T02:56:10.380Z,4.70
2019-01-10T02:58:38.221Z,5.00
2019-01-10T03:01:05.627Z,5.63
2019-01-10T03:03:34.214Z,4.83
2019-01-10T03:06:22.363Z,4.90
2019-01-10T03:08:49.747Z,5.40
2019-01-10T03:11:17.090Z,5.40
2019-01-10T03:13:46.812Z,5.90
2019-01-10T03:16:14.244Z,5.40
2019-01-10T03:18:41.609Z,6.00
2019-01-10T03:21:08.995Z,5.40
2019-01-10T03:23:38.229Z,5.73
2019-01-10T03:26:05.530Z,5.97
2019-01-10T03:28:33.188Z,6.13
2019-01-10T03:31:00.544Z,5.50
2019-01-10T03:33:28.078Z,6.57
2019-01-10T03:35:55.475Z,5.23
2019-01-10T03:38:22.862Z,4.90
2019-01-10T03:40:50.261Z,6.17
2019-01-10T03:43:17.638Z,5.63
2019-01-10T03:45:45.408Z,5.70
2019-01-10T03:48:12.808Z,5.53
2019-01-10T03:50:40.411Z,5.27
2019-01-10T03:53:07.693Z,5.23
2019-01-10T03:55:35.119Z,5.20
2019-01-10T03:58:03.081Z,4.90
2019-01-10T04:00:30.354Z,4.83
2019-01-10T04:02:57.763Z,4.80
2019-01-10T04:05:25.468Z,5.33
2019-01-10T04:07:52.904Z,5.27
2019-01-10T04:10:20.186Z,5.23
2019-01-10T04:12:47.605Z,5.17
2019-01-10T04:15:15.369Z,5.37
2019-01-10T04:17:42.750Z,5.40
2019-01-10T04:20:11.691Z,5.40
2019-01-10T04:22:39.102Z,5.20
2019-01-10T04:25:06.847Z,5.77
2019-01-10T04:27:34.220Z,6.03
2019-01-10T04:30:01.982Z,5.77
2019-01-10T04:32:29.479Z,5.57
2019-01-10T04:34:56.846Z,5.20
2019-01-10T04:37:24.724Z,5.00
2019-01-10T04:39:52.183Z,6.13
2019-01-10T04:42:21.765Z,6.50
2019-01-10T04:44:49.209Z,5.93
2019-01-10T04:47:16.605Z,5.90
2019-01-10T04:49:44.067Z,6.00
2019-01-10T04:52:11.427Z,6.00
2019-01-10T04:54:38.764Z,5.40
2019-01-10T04:57:06.055Z,6.27
2019-01-10T04:59:33.431Z,5.77
2019-01-10T05:02:01.083Z,5.83
2019-01-10T05:04:28.472Z,6.60
2019-01-10T05:06:58.187Z,6.10
2019-01-10T05:09:25.585Z,6.60
2019-01-10T05:11:52.945Z,6.43
2019-01-10T05:14:20.329Z,6.80
2019-01-10T05:16:47.769Z,6.50
2019-01-10T05:19:15.865Z,7.13
2019-01-10T05:21:43.142Z,6.80
2019-01-10T05:24:10.970Z,6.93
2019-01-10T05:26:38.635Z,7.53
2019-01-10T05:29:06.351Z,7.07
2019-01-10T05:31:34.144Z,7.07
2019-01-10T05:34:01.535Z,5.90
2019-01-10T05:36:28.841Z,6.43
2019-01-10T05:38:56.283Z,7.00
2019-01-10T05:41:23.682Z,6.53
2019-01-10T05:43:51.116Z,7.37
2019-01-10T05:46:18.550Z,7.37
2019-01-10T05:48:46.982Z,6.80
2019-01-10T05:51:15.381Z,6.97
2019-01-10T05:53:47.045Z,5.80
2019-01-10T05:56:15.632Z,7.00
2019-01-10T05:58:44.586Z,8.60
2019-01-10T06:01:12.316Z,7.00
2019-01-10T06:03:39.842Z,6.80
2019-01-10T06:06:07.316Z,7.57
2019-01-10T06:08:34.870Z,7.23
2019-01-10T06:11:02.293Z,7.23
2019-01-10T06:13:30.040Z,7.27
2019-01-10T06:15:57.559Z,7.20
2019-01-10T06:18:24.939Z,7.70
2019-01-10T06:20:52.722Z,7.50
2019-01-10T06:23:20.103Z,8.43
2019-01-10T06:25:47.444Z,7.10
2019-01-10T06:28:15.736Z,8.80
2019-01-10T06:30:43.151Z,7.57
2019-01-10T06:33:10.537Z,6.93
2019-01-10T06:35:37.946Z,8.17
2019-01-10T06:38:05.353Z,7.23
2019-01-10T06:40:32.758Z,7.70
2019-01-10T06:43:00.199Z,7.20
2019-01-10T06:45:27.599Z,7.87
2019-01-10T06:47:54.981Z,7.20
2019-01-10T06:50:22.432Z,8.60
2019-01-10T06:52:49.932Z,7.87
2019-01-10T06:55:17.351Z,7.60
2019-01-10T06:57:45.055Z,8.60
2019-01-10T07:00:20.619Z,8.30
2019-01-10T07:02:48.572Z,8.20
2019-01-10T07:05:15.975Z,9.03
2019-01-10T07:07:43.409Z,7.80
2019-01-10T07:10:14.265Z,8.17
2019-01-10T07:12:42.020Z,7.70
2019-01-10T07:15:09.868Z,8.27
2019-01-10T07:17:37.338Z,9.37
2019-01-10T07:20:05.229Z,8.50
2019-01-10T07:22:33.326Z,8.83
2019-01-10T07:25:00.894Z,8.17
2019-01-10T07:27:28.154Z,8.07
2019-01-10T07:29:56.229Z,8.80
2019-01-10T07:32:25.053Z,8.87
2019-01-10T07:34:59.972Z,8.93
2019-01-10T07:37:27.255Z,8.27
2019-01-10T07:39:54.634Z,7.53
2019-01-10T07:42:21.891Z,9.40
2019-01-10T07:44:49.140Z,7.83
2019-01-10T07:47:16.946Z,9.60
2019-01-10T07:49:44.349Z,8.40
2019-01-10T07:52:11.753Z,9.00
2019-01-10T07:54:39.123Z,9.37
2019-01-10T07:57:06.394Z,8.30
2019-01-10T07:59:33.652Z,9.93
2019-01-10T08:02:01.079Z,9.50
2019-01-10T08:04:28.619Z,10.17
2019-01-10T08:06:56.420Z,10.33
2019-01-10T08:09:23.820Z,8.40
2019-01-10T08:12:00.089Z,8.27
2019-01-10T08:14:20.731Z,8.00
2019-01-10T08:16:48.127Z,9.10
2019-01-10T08:19:16.706Z,8.47
2019-01-10T08:21:44.120Z,7.73
2019-01-10T08:24:11.691Z,7.83
2019-01-10T08:26:39.067Z,7.80
2019-01-10T08:29:06.293Z,8.53
2019-01-10T08:31:33.775Z,7.27
2019-01-10T08:34:00.996Z,8.47
2019-01-10T08:36:32.593Z,8.00
2019-01-10T08:38:58.078Z,8.37
2019-01-10T08:41:25.536Z,7.73
2019-01-10T08:43:52.959Z,6.90
2019-01-10T08:46:20.340Z,8.63
2019-01-10T08:48:47.989Z,7.10
2019-01-10T08:51:15.437Z,7.90
2019-01-10T08:53:42.947Z,6.60
2019-01-10T08:56:10.349Z,7.50
2019-01-10T08:58:37.844Z,8.40
2019-01-10T09:01:05.229Z,7.23
2019-01-10T09:03:32.666Z,8.13
2019-01-10T09:06:08.096Z,8.00
2019-01-10T09:08:29.627Z,7.70
2019-01-10T09:10:57.058Z,7.47
2019-01-10T09:13:24.475Z,8.13
2019-01-10T09:15:53.160Z,7.73
2019-01-10T09:18:20.705Z,8.10
2019-01-10T09:20:48.094Z,7.83
2019-01-10T09:23:16.239Z,7.53
2019-01-10T09:25:43.708Z,7.37
2019-01-10T09:28:11.505Z,8.13
2019-01-10T09:30:39.035Z,7.50
2019-01-10T09:33:06.300Z,8.43
2019-01-10T09:35:34.027Z,7.50
2019-01-10T09:38:01.377Z,7.87
2019-01-10T09:40:29.774Z,7.13
2019-01-10T09:42:57.253Z,8.03
2019-01-10T09:45:24.887Z,8.03
2019-01-10T09:47:52.731Z,7.90
2019-01-10T09:50:20.805Z,8.80
2019-01-10T09:52:48.413Z,8.60
2019-01-10T09:55:15.783Z,7.70
2019-01-10T09:57:43.276Z,7.63
2019-01-10T10:00:17.355Z,8.47
2019-01-10T10:02:44.763Z,7.80
2019-01-10T10:05:12.183Z,7.97
2019-01-10T10:07:39.590Z,8.10
2019-01-10T10:10:09.167Z,7.77
2019-01-10T10:12:36.395Z,7.50
2019-01-10T10:15:04.994Z,8.30
2019-01-10T10:17:32.330Z,8.23
2019-01-10T10:20:00.037Z,7.07
2019-01-10T10:22:27.740Z,7.20
2019-01-10T10:24:55.018Z,7.90
2019-01-10T10:27:22.775Z,8.00
2019-01-10T10:29:50.314Z,7.40
2019-01-10T10:32:17.599Z,7.60
2019-01-10T10:34:44.967Z,7.40
2019-01-10T10:37:12.375Z,7.97
2019-01-10T10:39:40.014Z,7.60
2019-01-10T10:42:07.424Z,7.30
2019-01-10T10:44:35.029Z,7.47
2019-01-10T10:47:02.683Z,8.20
2019-01-10T10:49:30.089Z,8.67
2019-01-10T10:51:57.514Z,8.37
2019-01-10T10:54:24.758Z,8.17
2019-01-10T10:56:52.238Z,8.97
2019-01-10T10:59:19.615Z,8.07
2019-01-10T11:01:47.005Z,7.87
2019-01-10T11:04:14.923Z,8.80
2019-01-10T11:06:42.443Z,9.00
2019-01-10T11:09:10.405Z,8.40
2019-01-10T11:11:37.913Z,8.97
2019-01-10T11:14:05.429Z,8.70
2019-01-10T11:16:33.095Z,8.07
2019-01-10T11:19:00.530Z,8.23
2019-01-10T11:21:28.241Z,7.60
2019-01-10T11:23:55.612Z,8.20
2019-01-10T11:26:22.908Z,7.77
2019-01-10T11:28:50.370Z,8.73
2019-01-10T11:31:17.967Z,7.70
2019-01-10T11:33:45.512Z,8.47
2019-01-10T11:36:13.003Z,7.57
2019-01-10T11:38:40.351Z,6.83
2019-01-10T11:41:08.091Z,7.33
2019-01-10T11:43:35.626Z,8.17
2019-01-10T11:46:03.201Z,7.97
2019-01-10T11:48:30.494Z,7.77
2019-01-10T11:50:57.840Z,6.90
2019-01-10T11:53:25.247Z,6.90
2019-01-10T11:55:52.634Z,7.93
2019-01-10T11:58:20.023Z,7.03
2019-01-10T12:00:47.301Z,7.80
2019-01-10T12:03:14.697Z,8.27
2019-01-10T12:05:48.245Z,8.20
2019-01-10T12:08:14.651Z,7.70
2019-01-10T12:10:42.090Z,7.27
2019-01-10T12:13:09.490Z,7.40
2019-01-10T12:15:37.006Z,7.67
2019-01-10T12:18:04.651Z,7.07
2019-01-10T12:20:32.094Z,6.80
2019-01-10T12:22:59.612Z,6.83
2019-01-10T12:25:26.957Z,7.27
2019-01-10T12:27:54.382Z,6.63
2019-01-10T12:30:23.551Z,7.37
2019-01-10T12:32:50.829Z,7.20
2019-01-10T12:35:19.383Z,7.87
2019-01-10T12:37:47.205Z,6.90
2019-01-10T12:40:14.614Z,6.90
2019-01-10T12:42:42.022Z,6.03
2019-01-10T12:45:10.631Z,6.13
2019-01-10T12:47:38.012Z,6.90
2019-01-10T12:50:09.971Z,6.43
2019-01-10T12:52:37.337Z,7.00
2019-01-10T12:55:04.930Z,6.87
2019-01-10T12:57:32.347Z,6.07
2019-01-10T12:59:59.657Z,6.60
2019-01-10T13:02:27.059Z,6.30
2019-01-10T13:04:54.558Z,7.50
2019-01-10T13:07:21.935Z,6.67
2019-01-10T13:09:49.470Z,6.07
2019-01-10T13:12:16.887Z,5.77
2019-01-10T13:14:44.583Z,5.60
2019-01-10T13:17:13.064Z,5.60
2019-01-10T13:19:40.858Z,6.13
2019-01-10T13:22:08.430Z,6.30
2019-01-10T13:24:35.829Z,6.47
2019-01-10T13:27:03.417Z,6.23
2019-01-10T13:29:30.761Z,6.10
2019-01-10T13:31:58.155Z,6.23
2019-01-10T13:34:25.523Z,6.63
2019-01-10T13:36:52.925Z,5.80
2019-01-10T13:39:20.307Z,6.93
2019-01-10T13:41:47.745Z,6.87
2019-01-10T13:44:15.167Z,6.43
2019-01-10T13:46:42.563Z,6.77
2019-01-10T13:49:10.080Z,6.97
2019-01-10T13:51:38.780Z,8.43
2019-01-10T13:54:06.307Z,7.37
2019-01-10T13:56:34.767Z,8.50
2019-01-10T13:59:02.176Z,9.17
2019-01-10T14:01:29.537Z,7.70
2019-01-10T14:03:57.220Z,8.03
2019-01-10T14:06:24.722Z,7.63
2019-01-10T14:08:52.094Z,8.57
2019-01-10T14:11:20.088Z,8.10
2019-01-10T14:13:47.723Z,8.63
2019-01-10T14:16:14.977Z,7.63
2019-01-10T14:18:42.578Z,9.50
2019-01-10T14:21:09.994Z,9.63
2019-01-10T14:23:37.457Z,9.23
2019-01-10T14:26:05.193Z,7.67
2019-01-10T14:28:32.565Z,8.10
2019-01-10T14:30:59.999Z,7.70
2019-01-10T14:33:27.905Z,7.87
2019-01-10T14:35:55.294Z,7.50
2019-01-10T14:38:22.910Z,7.83
2019-01-10T14:40:50.442Z,8.10
2019-01-10T14:43:17.845Z,8.60
2019-01-10T14:45:45.228Z,8.47
2019-01-10T14:48:12.563Z,8.07
2019-01-10T14:50:40.970Z,7.70
2019-01-10T14:53:08.616Z,8.23
2019-01-10T14:55:36.019Z,7.23
2019-01-10T14:58:03.796Z,6.63
2019-01-10T15:00:31.159Z,6.90
2019-01-10T15:02:58.595Z,7.70
2019-01-10T15:05:26.363Z,7.50
2019-01-10T15:07:54.084Z,7.20
2019-01-10T15:10:21.367Z,7.13
2019-01-10T15:12:49.029Z,7.20
2019-01-10T15:15:18.185Z,6.90
2019-01-10T15:17:46.704Z,6.53
2019-01-10T15:20:25.732Z,6.63
2019-01-10T15:22:53.211Z,8.63
2019-01-10T15:25:21.047Z,7.20
2019-01-10T15:27:48.552Z,6.90
2019-01-10T15:30:20.973Z,7.37
2019-01-10T15:32:48.370Z,7.30
2019-01-10T15:35:15.833Z,7.37
2019-01-10T15:37:43.343Z,7.57
2019-01-10T15:40:22.537Z,6.40
2019-01-10T15:42:49.807Z,7.57
2019-01-10T15:45:17.221Z,6.97
2019-01-10T15:47:44.611Z,7.33
2019-01-10T15:50:14.194Z,7.20
2019-01-10T15:52:41.554Z,7.87
2019-01-10T15:55:09.592Z,10.60
2019-01-10T15:57:36.983Z,7.40
2019-01-10T16:00:06.403Z,7.00
2019-01-10T16:02:34.420Z,6.60
2019-01-10T16:05:02.011Z,6.70
2019-01-10T16:07:29.506Z,6.27
2019-01-10T16:09:56.809Z,6.50
2019-01-10T16:12:24.211Z,6.40
2019-01-10T16:14:51.909Z,6.27
2019-01-10T16:17:19.270Z,7.93
2019-01-10T16:19:46.626Z,6.97
2019-01-10T16:22:13.971Z,5.57
2019-01-10T16:24:41.324Z,5.90
2019-01-10T16:27:08.720Z,6.70
2019-01-10T16:29:36.153Z,5.80
2019-01-10T16:32:03.800Z,7.00
2019-01-10T16:34:31.082Z,6.30
2019-01-10T16:36:58.514Z,5.50
2019-01-10T16:39:25.881Z,7.47
2019-01-10T16:41:53.508Z,6.10
2019-01-10T16:44:20.841Z,6.17
2019-01-10T16:46:48.303Z,5.97
2019-01-10T16:49:15.654Z,7.43
2019-01-10T16:51:44.159Z,5.97
2019-01-10T16:54:12.554Z,6.43
2019-01-10T16:56:40.016Z,6.27
2019-01-10T16:59:07.401Z,7.00
2019-01-10T17:01:34.803Z,6.07
2019-01-10T17:04:02.055Z,6.33
2019-01-10T17:06:29.488Z,6.93
2019-01-10T17:08:56.885Z,5.47
2019-01-10T17:11:24.338Z,5.53
2019-01-10T17:13:51.717Z,5.80
2019-01-10T17:16:18.974Z,5.60
2019-01-10T17:18:46.639Z,5.43
2019-01-10T17:21:14.027Z,6.10
2019-01-10T17:23:41.824Z,6.97
2019-01-10T17:26:09.115Z,7.13
2019-01-10T17:28:36.551Z,6.17
2019-01-10T17:31:03.827Z,6.40
2019-01-10T17:33:31.212Z,6.00
2019-01-10T17:35:58.679Z,5.37
2019-01-10T17:38:26.203Z,5.00
2019-01-10T17:40:54.488Z,5.27
2019-01-10T17:43:22.051Z,5.40
2019-01-10T17:45:50.184Z,5.63
2019-01-10T17:48:17.813Z,5.33
2019-01-10T17:50:45.255Z,6.37
2019-01-10T17:53:14.302Z,5.07
2019-01-10T17:55:41.933Z,4.43
2019-01-10T17:58:09.704Z,6.67
2019-01-10T18:00:37.745Z,5.50
2019-01-10T18:03:05.841Z,5.57
2019-01-10T18:05:33.231Z,6.23
2019-01-10T18:08:00.727Z,5.67
2019-01-10T18:10:28.332Z,6.80
2019-01-10T18:12:55.775Z,6.37
2019-01-10T18:15:23.572Z,6.10
2019-01-10T18:17:51.025Z,6.00
2019-01-10T18:20:41.098Z,7.17
2019-01-10T18:23:08.765Z,6.73
2019-01-10T18:25:36.574Z,6.40
2019-01-10T18:28:04.289Z,6.63
2019-01-10T18:30:31.786Z,6.80
2019-01-10T18:33:00.304Z,5.73
2019-01-10T18:35:27.920Z,5.93
2019-01-10T18:37:55.360Z,5.37
2019-01-10T18:40:22.781Z,5.43
2019-01-10T18:42:50.219Z,5.17
2019-01-10T18:45:20.157Z,5.30
2019-01-10T18:47:47.660Z,5.00
2019-01-10T18:50:17.437Z,5.27
2019-01-10T18:52:44.939Z,5.23
2019-01-10T18:55:12.349Z,5.27
2019-01-10T18:57:39.877Z,6.77
2019-01-10T19:00:36.291Z,9.50
2019-01-10T19:03:03.757Z,7.43
2019-01-10T19:05:31.581Z,8.83
2019-01-10T19:07:58.975Z,9.10
2019-01-10T19:10:26.372Z,8.37
2019-01-10T19:12:53.900Z,9.20
2019-01-10T19:15:21.663Z,8.03
2019-01-10T19:17:49.186Z,7.20
2019-01-10T19:20:19.246Z,9.10
2019-01-10T19:22:47.859Z,7.77
2019-01-10T19:25:15.334Z,7.70
2019-01-10T19:27:42.813Z,9.53
2019-01-10T19:30:18.349Z,10.63
2019-01-10T19:32:45.725Z,8.93
2019-01-10T19:35:13.127Z,13.53
2019-01-10T19:37:40.493Z,12.13
2019-01-10T19:40:10.718Z,12.50
2019-01-10T19:42:38.840Z,12.27
2019-01-10T19:45:07.767Z,11.50
2019-01-10T19:47:35.794Z,10.53
2019-01-10T19:50:04.607Z,9.13
2019-01-10T19:52:32.171Z,7.50
2019-01-10T19:54:59.689Z,8.83
2019-01-10T19:57:27.187Z,8.57
2019-01-10T19:59:54.668Z,8.23
2019-01-10T20:02:22.564Z,8.47
2019-01-10T20:04:50.227Z,6.03
2019-01-10T20:07:18.165Z,6.00
2019-01-10T20:09:45.628Z,7.40
2019-01-10T20:12:13.562Z,8.40
2019-01-10T20:14:41.038Z,8.23
2019-01-10T20:17:08.980Z,9.70
2019-01-10T20:19:36.401Z,9.50
2019-01-10T20:22:03.764Z,10.50
2019-01-10T20:24:32.493Z,10.97
2019-01-10T20:26:59.982Z,9.47
2019-01-10T20:29:29.167Z,8.47
2019-01-10T20:31:56.681Z,8.00
2019-01-10T20:34:24.510Z,7.23
2019-01-10T20:36:51.903Z,8.40
2019-01-10T20:39:20.068Z,16.47
2019-01-10T20:41:47.530Z,14.83
2019-01-10T20:44:14.942Z,14.03
2019-01-10T20:46:42.719Z,14.03
2019-01-10T20:49:10.092Z,13.07
2019-01-10T20:51:37.595Z,11.97
2019-01-10T20:54:05.333Z,13.13
2019-01-10T20:56:32.727Z,10.47
2019-01-10T20:59:01.811Z,9.97
2019-01-10T21:01:29.166Z,9.67
2019-01-10T21:03:56.908Z,8.40
2019-01-10T21:06:24.452Z,10.40
2019-01-10T21:08:52.269Z,13.80
2019-01-10T21:11:19.627Z,14.13
2019-01-10T21:13:48.309Z,13.10
2019-01-10T21:16:29.808Z,13.33
2019-01-10T21:18:57.191Z,10.33
2019-01-10T21:21:24.680Z,9.13
2019-01-10T21:23:51.968Z,9.67
2019-01-10T21:26:19.735Z,9.27
2019-01-10T21:28:47.498Z,10.63
2019-01-10T21:31:15.301Z,11.17
2019-01-10T21:33:42.662Z,11.03
2019-01-10T21:36:10.069Z,9.50
2019-01-10T21:38:37.612Z,9.10
2019-01-10T21:41:05.346Z,10.03
2019-01-10T21:43:32.826Z,9.57
2019-01-10T21:46:00.203Z,10.00
2019-01-10T21:48:27.725Z,9.37
2019-01-10T21:50:55.287Z,10.03
2019-01-10T21:53:22.998Z,10.10
2019-01-10T21:55:50.814Z,9.73
2019-01-10T21:58:18.061Z,9.07
2019-01-10T22:00:45.348Z,9.17
2019-01-10T22:03:13.881Z,9.23
2019-01-10T22:05:41.294Z,7.73
2019-01-10T22:08:08.715Z,7.87
2019-01-10T22:10:36.203Z,9.20
2019-01-10T22:13:03.577Z,8.40
2019-01-10T22:15:31.327Z,8.13
2019-01-10T22:17:58.791Z,9.13
2019-01-10T22:20:26.661Z,12.00
2019-01-10T22:22:54.357Z,12.80
2019-01-10T22:25:21.852Z,15.93
2019-01-10T22:27:50.658Z,14.43
2019-01-10T22:30:19.961Z,12.33
2019-01-10T22:32:47.671Z,13.83
2019-01-10T22:35:16.443Z,14.50
2019-01-10T22:37:43.753Z,17.03
2019-01-10T22:40:13.839Z,14.83
2019-01-10T22:42:41.401Z,9.57
2019-01-10T22:45:09.162Z,10.93
2019-01-10T22:47:36.549Z,8.47
2019-01-10T22:50:05.497Z,11.57
2019-01-10T22:52:33.053Z,10.57
2019-01-10T22:55:00.436Z,9.63
2019-01-10T22:57:27.705Z,11.57
2019-01-10T22:59:55.066Z,8.87
2019-01-10T23:02:22.491Z,8.67
2019-01-10T23:04:50.099Z,10.13
2019-01-10T23:07:21.391Z,10.87
2019-01-10T23:09:48.793Z,8.83
2019-01-10T23:12:16.525Z,9.83
2019-01-10T23:14:44.292Z,9.53
2019-01-10T23:17:11.648Z,9.80
2019-01-10T23:19:47.097Z,9.97
2019-01-10T23:22:15.777Z,10.03
2019-01-10T23:24:44.063Z,9.93
2019-01-10T23:27:11.559Z,9.90
2019-01-10T23:29:39.185Z,9.40
2019-01-10T23:32:09.471Z,9.93
2019-01-10T23:34:37.324Z,9.87
2019-01-10T23:37:05.170Z,9.63
2019-01-10T23:39:32.586Z,9.73
2019-01-10T23:42:00.370Z,10.53
2019-01-10T23:44:27.815Z,9.30
2019-01-10T23:46:55.570Z,9.37
2019-01-10T23:49:22.859Z,9.63
2019-01-10T23:51:50.231Z,9.73
2019-01-10T23:54:18.077Z,10.20
2019-01-10T23:56:45.500Z,9.13
2019-01-10T23:59:12.906Z,10.47
